createdAt,value
2023-04-26T00:03:26.039Z,58.94
2023-04-26T00:07:42.926Z,59.57
2023-04-26T00:11:59.312Z,58.92
2023-04-26T00:16:15.774Z,59.32
2023-04-26T00:20:32.138Z,58.60
2023-04-26T00:24:48.969Z,58.10
2023-04-26T00:29:05.658Z,58.72
2023-04-26T00:33:22.100Z,59.08
2023-04-26T00:37:38.520Z,59.49
2023-04-26T00:41:55.372Z,58.74
2023-04-26T00:46:11.699Z,58.43
2023-04-26T00:50:28.157Z,58.26
2023-04-26T00:54:44.474Z,57.96
2023-04-26T00:59:01.024Z,57.67
2023-04-26T01:03:17.954Z,58.50
2023-04-26T01:07:34.944Z,58.68
2023-04-26T01:11:51.982Z,58.84
2023-04-26T01:16:08.937Z,58.95
2023-04-26T01:20:26.384Z,59.61
2023-04-26T01:24:49.098Z,59.28
2023-04-26T01:29:20.122Z,58.64
2023-04-26T01:33:36.519Z,58.54
2023-04-26T01:37:52.976Z,58.93
2023-04-26T01:42:09.303Z,59.60
2023-04-26T01:46:26.155Z,58.80
2023-04-26T01:50:42.539Z,58.91
2023-04-26T01:54:58.794Z,58.90
2023-04-26T01:59:15.094Z,59.21
2023-04-26T02:03:31.626Z,58.53
2023-04-26T02:07:48.026Z,58.50
2023-04-26T02:12:04.538Z,58.17
2023-04-26T02:16:21.502Z,57.97
2023-04-26T02:20:38.249Z,58.34
2023-04-26T02:24:54.499Z,57.97
2023-04-26T02:29:10.792Z,57.93
2023-04-26T02:33:27.142Z,58.10
2023-04-26T02:37:43.436Z,58.04
2023-04-26T02:41:59.890Z,57.81
2023-04-26T02:46:17.321Z,57.41
2023-04-26T02:50:33.737Z,57.89
2023-04-26T02:54:50.105Z,57.64
2023-04-26T02:59:07.423Z,58.09
2023-04-26T03:03:23.874Z,57.27
2023-04-26T03:07:40.306Z,57.37
2023-04-26T03:11:56.898Z,57.07
2023-04-26T03:16:13.151Z,56.91
2023-04-26T03:20:29.461Z,56.77
2023-04-26T03:24:47.904Z,56.76
2023-04-26T03:29:04.486Z,56.42
2023-04-26T03:33:20.742Z,56.05
2023-04-26T03:37:40.180Z,56.10
2023-04-26T03:41:56.585Z,55.92
2023-04-26T03:46:13.029Z,55.76
2023-04-26T03:50:29.293Z,55.94
2023-04-26T03:54:45.580Z,55.46
2023-04-26T03:59:02.217Z,56.15
2023-04-26T04:03:18.662Z,56.30
2023-04-26T04:07:35.282Z,55.94
2023-04-26T04:11:52.032Z,55.66
2023-04-26T04:16:10.508Z,56.39
2023-04-26T04:20:26.851Z,56.32
2023-04-26T04:24:44.423Z,56.24
2023-04-26T04:29:09.079Z,55.55
2023-04-26T04:33:28.719Z,55.99
2023-04-26T04:37:45.850Z,55.99
2023-04-26T04:42:02.066Z,56.38
2023-04-26T04:46:18.516Z,55.37
2023-04-26T04:50:36.042Z,55.81
2023-04-26T04:54:52.341Z,55.79
2023-04-26T04:59:09.023Z,55.42
2023-04-26T05:03:25.392Z,55.86
2023-04-26T05:07:41.815Z,55.63
2023-04-26T05:11:58.091Z,54.71
2023-04-26T05:16:14.498Z,55.82
2023-04-26T05:20:31.511Z,55.69
2023-04-26T05:24:48.416Z,54.77
2023-04-26T05:29:04.764Z,54.49
2023-04-26T05:33:21.032Z,54.31
2023-04-26T05:37:37.509Z,55.08
2023-04-26T05:41:53.772Z,54.40
2023-04-26T05:46:10.263Z,53.42
2023-04-26T05:50:26.792Z,53.28
2023-04-26T05:54:43.115Z,52.84
2023-04-26T05:58:59.559Z,50.89
2023-04-26T06:03:16.500Z,50.68
2023-04-26T06:07:33.604Z,50.01
2023-04-26T06:11:49.953Z,48.16
2023-04-26T06:16:06.599Z,47.49
2023-04-26T06:20:23.201Z,48.18
2023-04-26T06:24:39.687Z,48.07
2023-04-26T06:28:56.029Z,45.76
2023-04-26T06:33:12.316Z,48.57
2023-04-26T06:37:29.183Z,45.55
2023-04-26T06:41:45.454Z,45.94
2023-04-26T06:46:01.922Z,44.90
2023-04-26T06:50:18.627Z,45.25
2023-04-26T06:54:37.814Z,43.88
2023-04-26T06:59:03.840Z,42.68
2023-04-26T07:03:20.410Z,41.43
2023-04-26T07:07:36.913Z,40.29
2023-04-26T07:11:53.279Z,40.57
2023-04-26T07:16:09.544Z,38.95
2023-04-26T07:20:25.977Z,39.72
2023-04-26T07:24:42.501Z,39.03
2023-04-26T07:29:00.206Z,38.99
2023-04-26T07:33:16.667Z,38.76
2023-04-26T07:37:33.046Z,38.14
2023-04-26T07:41:49.390Z,36.77
2023-04-26T07:46:05.784Z,36.41
2023-04-26T07:50:22.229Z,34.40
2023-04-26T07:54:40.262Z,36.68
2023-04-26T07:58:56.756Z,35.09
2023-04-26T08:03:15.338Z,35.26
2023-04-26T08:07:31.767Z,35.88
2023-04-26T08:11:48.184Z,35.13
2023-04-26T08:16:04.752Z,36.11
2023-04-26T08:20:21.082Z,36.92
2023-04-26T08:24:37.349Z,34.93
2023-04-26T08:28:53.640Z,35.14
2023-04-26T08:33:10.766Z,33.67
2023-04-26T08:37:28.766Z,35.25
2023-04-26T08:41:54.115Z,32.16
2023-04-26T08:46:16.940Z,35.80
2023-04-26T08:50:33.896Z,35.75
2023-04-26T08:54:53.741Z,31.01
2023-04-26T08:59:10.801Z,33.85
2023-04-26T09:03:27.562Z,33.09
2023-04-26T09:07:45.635Z,32.17
2023-04-26T09:12:03.716Z,32.09
2023-04-26T09:16:20.202Z,34.50
2023-04-26T09:20:36.822Z,31.58
2023-04-26T09:24:53.172Z,33.53
2023-04-26T09:29:18.138Z,32.78
2023-04-26T09:33:34.414Z,31.09
2023-04-26T09:38:13.879Z,31.86
2023-04-26T09:42:31.605Z,30.23
2023-04-26T09:47:00.376Z,29.97
2023-04-26T09:51:16.968Z,29.19
2023-04-26T09:55:35.326Z,28.91
2023-04-26T09:59:56.714Z,27.70
2023-04-26T10:04:13.244Z,28.38
2023-04-26T10:08:29.755Z,29.28
2023-04-26T10:12:46.769Z,27.90
2023-04-26T10:17:03.788Z,30.30
2023-04-26T10:21:29.068Z,29.04
2023-04-26T10:25:45.375Z,28.13
2023-04-26T10:30:09.380Z,25.97
2023-04-26T10:34:25.698Z,28.25
2023-04-26T10:39:03.113Z,27.83
2023-04-26T10:43:20.055Z,27.53
2023-04-26T10:47:37.579Z,29.47
2023-04-26T10:52:14.212Z,26.24
2023-04-26T10:56:33.818Z,27.19
2023-04-26T11:01:06.611Z,29.83
2023-04-26T11:05:38.748Z,30.12
2023-04-26T11:09:55.065Z,31.93
2023-04-26T11:14:11.688Z,31.83
2023-04-26T11:18:28.807Z,32.29
2023-04-26T11:22:45.257Z,29.65
2023-04-26T11:27:03.188Z,30.30
2023-04-26T11:31:19.815Z,31.52
2023-04-26T11:35:40.772Z,29.64
2023-04-26T11:39:58.311Z,28.02
2023-04-26T11:44:18.346Z,27.69
2023-04-26T11:48:37.153Z,25.61
2023-04-26T11:52:57.233Z,24.60
2023-04-26T11:57:18.466Z,27.63
2023-04-26T12:01:35.090Z,26.13
2023-04-26T12:05:57.507Z,26.45
2023-04-26T12:10:21.828Z,23.43
2023-04-26T12:14:40.347Z,24.10
2023-04-26T12:18:57.389Z,21.85
2023-04-26T12:23:17.751Z,24.61
2023-04-26T12:27:35.059Z,22.70
2023-04-26T12:31:51.519Z,23.13
2023-04-26T12:36:12.549Z,25.15
2023-04-26T12:40:29.727Z,25.13
2023-04-26T12:44:46.505Z,27.00
2023-04-26T12:49:03.817Z,26.98
2023-04-26T12:53:20.370Z,28.21
2023-04-26T12:57:40.883Z,27.17
2023-04-26T13:01:57.310Z,25.78
2023-04-26T13:06:13.662Z,25.96
2023-04-26T13:10:30.169Z,25.67
2023-04-26T13:14:46.847Z,25.97
2023-04-26T13:19:03.198Z,26.80
2023-04-26T13:23:19.480Z,26.57
2023-04-26T13:27:36.008Z,28.85
2023-04-26T13:31:52.552Z,29.41
2023-04-26T13:36:09.103Z,30.04
2023-04-26T13:40:25.452Z,28.60
2023-04-26T13:44:41.815Z,30.59
2023-04-26T13:48:58.458Z,30.37
2023-04-26T13:53:14.691Z,30.65
2023-04-26T13:57:32.164Z,30.25
2023-04-26T14:01:48.718Z,28.73
2023-04-26T14:06:05.403Z,27.55
2023-04-26T14:10:21.854Z,26.45
2023-04-26T14:14:38.166Z,26.13
2023-04-26T14:18:54.462Z,27.94
2023-04-26T14:23:10.936Z,29.27
2023-04-26T14:27:30.436Z,29.26
2023-04-26T14:31:46.858Z,28.62
2023-04-26T14:36:03.577Z,28.73
2023-04-26T14:40:20.070Z,29.81
2023-04-26T14:44:37.521Z,29.64
2023-04-26T14:48:54.195Z,29.37
2023-04-26T14:53:10.784Z,30.09
2023-04-26T14:57:27.186Z,28.96
2023-04-26T15:01:43.691Z,30.54
2023-04-26T15:06:00.305Z,28.21
2023-04-26T15:10:16.741Z,28.58
2023-04-26T15:14:33.053Z,27.52
2023-04-26T15:18:49.466Z,25.75
2023-04-26T15:23:05.733Z,24.44
2023-04-26T15:27:22.906Z,24.47
2023-04-26T15:31:39.319Z,25.13
2023-04-26T15:35:56.534Z,24.93
2023-04-26T15:40:13.369Z,25.37
2023-04-26T15:44:29.810Z,27.59
2023-04-26T15:48:47.365Z,26.50
2023-04-26T15:53:03.735Z,26.90
2023-04-26T15:57:19.952Z,27.24
2023-04-26T16:01:36.355Z,26.39
2023-04-26T16:05:52.693Z,27.53
2023-04-26T16:10:09.932Z,27.58
2023-04-26T16:14:26.554Z,27.76
2023-04-26T16:18:44.119Z,29.72
2023-04-26T16:23:00.459Z,27.67
2023-04-26T16:27:17.264Z,28.28
2023-04-26T16:31:33.637Z,28.31
2023-04-26T16:35:55.238Z,27.59
2023-04-26T16:40:11.922Z,27.75
2023-04-26T16:44:28.403Z,28.55
2023-04-26T16:48:44.747Z,27.31
2023-04-26T16:53:01.070Z,28.19
2023-04-26T16:57:18.310Z,27.76
2023-04-26T17:01:34.733Z,28.07
2023-04-26T17:05:51.330Z,27.71
2023-04-26T17:10:08.146Z,27.68
2023-04-26T17:14:24.486Z,28.53
2023-04-26T17:18:42.029Z,27.28
2023-04-26T17:22:59.287Z,27.53
2023-04-26T17:27:15.570Z,27.46
2023-04-26T17:31:31.987Z,27.57
2023-04-26T17:35:48.502Z,27.84
2023-04-26T17:40:06.278Z,28.18
2023-04-26T17:44:23.245Z,28.22
2023-04-26T17:48:39.836Z,29.43
2023-04-26T17:52:56.221Z,29.36
2023-04-26T17:57:12.533Z,30.70
2023-04-26T18:01:29.183Z,29.39
2023-04-26T18:05:45.679Z,29.76
2023-04-26T18:10:02.100Z,30.62
2023-04-26T18:14:18.364Z,31.06
2023-04-26T18:18:34.718Z,29.23
2023-04-26T18:22:51.268Z,30.10
2023-04-26T18:27:07.629Z,30.85
2023-04-26T18:31:24.179Z,31.97
2023-04-26T18:35:40.726Z,32.35
2023-04-26T18:39:57.120Z,33.28
2023-04-26T18:44:13.474Z,33.16
2023-04-26T18:48:29.762Z,33.30
2023-04-26T18:52:46.250Z,33.39
2023-04-26T18:57:03.678Z,33.43
2023-04-26T19:01:20.083Z,34.62
2023-04-26T19:05:37.628Z,35.00
2023-04-26T19:09:57.544Z,33.44
2023-04-26T19:14:16.036Z,33.62
2023-04-26T19:18:32.295Z,34.50
2023-04-26T19:22:48.703Z,35.32
2023-04-26T19:27:05.065Z,35.42
2023-04-26T19:31:22.168Z,33.73
2023-04-26T19:35:38.583Z,33.97
2023-04-26T19:39:54.880Z,33.33
2023-04-26T19:44:12.513Z,33.71
2023-04-26T19:48:28.941Z,33.54
2023-04-26T19:52:45.648Z,33.86
2023-04-26T19:57:05.013Z,34.54
2023-04-26T20:01:21.362Z,35.22
2023-04-26T20:05:37.657Z,34.86
2023-04-26T20:09:53.894Z,35.11
2023-04-26T20:14:10.169Z,34.78
2023-04-26T20:18:26.424Z,34.29
2023-04-26T20:22:42.700Z,35.79
2023-04-26T20:26:59.026Z,36.67
2023-04-26T20:31:15.399Z,36.95
2023-04-26T20:35:31.813Z,36.86
2023-04-26T20:39:48.654Z,37.92
2023-04-26T20:44:05.619Z,38.88
2023-04-26T20:48:22.376Z,38.86
2023-04-26T20:52:38.621Z,39.18
2023-04-26T20:56:54.992Z,39.49
2023-04-26T21:01:11.714Z,39.84
2023-04-26T21:05:28.053Z,40.28
2023-04-26T21:09:44.281Z,40.12
2023-04-26T21:14:01.231Z,40.69
2023-04-26T21:18:17.489Z,40.91
2023-04-26T21:22:33.861Z,42.42
2023-04-26T21:26:50.242Z,43.75
2023-04-26T21:31:07.705Z,43.53
2023-04-26T21:35:24.247Z,43.37
2023-04-26T21:39:40.554Z,42.89
2023-04-26T21:43:58.831Z,43.27
2023-04-26T21:48:15.078Z,44.09
2023-04-26T21:52:31.987Z,45.59
2023-04-26T21:56:48.225Z,45.69
2023-04-26T22:01:12.983Z,46.35
2023-04-26T22:05:29.639Z,45.46
2023-04-26T22:09:46.163Z,45.08
2023-04-26T22:14:02.432Z,45.15
2023-04-26T22:18:18.923Z,45.81
2023-04-26T22:22:35.260Z,46.55
2023-04-26T22:26:51.495Z,46.44
2023-04-26T22:31:07.791Z,51.84
2023-04-26T22:35:25.008Z,46.21
2023-04-26T22:39:41.722Z,44.65
2023-04-26T22:43:58.094Z,43.89
2023-04-26T22:48:14.323Z,43.53
2023-04-26T22:52:32.119Z,43.89
2023-04-26T22:56:48.874Z,43.73
2023-04-26T23:01:05.588Z,44.26
2023-04-26T23:05:21.905Z,44.39
2023-04-26T23:09:38.225Z,44.64
2023-04-26T23:13:56.537Z,44.80
2023-04-26T23:18:13.946Z,46.06
2023-04-26T23:22:30.261Z,45.75
2023-04-26T23:26:46.588Z,46.15
2023-04-26T23:31:03.007Z,47.09
2023-04-26T23:35:19.367Z,47.65
2023-04-26T23:39:36.552Z,46.83
2023-04-26T23:43:52.869Z,46.44
2023-04-26T23:48:09.193Z,46.43
2023-04-26T23:52:25.502Z,46.57
2023-04-26T23:56:41.766Z,46.36
